createdAt,value
2019-03-16T00:01:04.367Z,94740.39
2019-03-16T00:03:30.355Z,94746.55
2019-03-16T00:05:56.362Z,94742.14
2019-03-16T00:08:22.359Z,94739.89
2019-03-16T00:10:48.357Z,94746.63
2019-03-16T00:13:16.089Z,94754.20
2019-03-16T00:15:40.413Z,94751.88
2019-03-16T00:18:06.424Z,94746.22
2019-03-16T00:20:32.452Z,94746.22
2019-03-16T00:22:58.452Z,94746.22
2019-03-16T00:25:24.454Z,94749.50
2019-03-16T00:27:50.451Z,94746.75
2019-03-16T00:30:16.585Z,94745.42
2019-03-16T00:32:42.493Z,94743.27
2019-03-16T00:35:08.513Z,94734.86
2019-03-16T00:37:34.501Z,94721.97
2019-03-16T00:40:00.499Z,94725.96
2019-03-16T00:42:26.515Z,94722.47
2019-03-16T00:44:52.504Z,94719.30
2019-03-16T00:47:18.524Z,94716.23
2019-03-16T00:49:44.521Z,94710.20
2019-03-16T00:52:10.520Z,94703.04
2019-03-16T00:54:36.527Z,94704.78
2019-03-16T00:57:02.616Z,94705.29
2019-03-16T00:59:28.587Z,94709.28
2019-03-16T01:01:54.659Z,94706.63
2019-03-16T01:04:20.612Z,94708.98
2019-03-16T01:06:46.608Z,94712.45
2019-03-16T01:09:12.603Z,94716.97
2019-03-16T01:11:38.602Z,94724.01
2019-03-16T01:14:04.594Z,94717.36
2019-03-16T01:16:30.596Z,94714.81
2019-03-16T01:18:56.594Z,94724.22
2019-03-16T01:21:22.592Z,94716.64
2019-03-16T01:23:48.646Z,94712.23
2019-03-16T01:26:14.665Z,94705.59
2019-03-16T01:28:40.662Z,94699.55
2019-03-16T01:31:06.662Z,94698.22
2019-03-16T01:33:32.679Z,94706.92
2019-03-16T01:35:58.671Z,94709.28
2019-03-16T01:38:24.671Z,94712.78
2019-03-16T01:40:50.667Z,94720.44
2019-03-16T01:43:16.666Z,94718.19
2019-03-16T01:45:42.659Z,94723.92
2019-03-16T01:48:08.651Z,94737.73
2019-03-16T01:50:34.661Z,94732.41
2019-03-16T01:53:00.644Z,94742.14
2019-03-16T01:55:26.645Z,94748.09
2019-03-16T01:57:52.668Z,94737.23
2019-03-16T02:00:18.688Z,94736.94
2019-03-16T02:02:55.104Z,94739.19
2019-03-16T02:05:10.679Z,94739.60
2019-03-16T02:07:36.679Z,94742.68
2019-03-16T02:10:02.675Z,94725.80
2019-03-16T02:12:28.676Z,94732.95
2019-03-16T02:14:54.670Z,94729.05
2019-03-16T02:17:20.674Z,94728.54
2019-03-16T02:19:46.670Z,94725.47
2019-03-16T02:22:12.692Z,94733.57
2019-03-16T02:24:38.689Z,94729.88
2019-03-16T02:27:04.686Z,94729.16
2019-03-16T02:29:30.693Z,94726.91
2019-03-16T02:31:56.687Z,94729.05
2019-03-16T02:34:22.703Z,94725.59
2019-03-16T02:36:48.699Z,94724.64
2019-03-16T02:39:14.703Z,94723.02
2019-03-16T02:41:40.743Z,94721.59
2019-03-16T02:44:10.839Z,94712.78
2019-03-16T02:46:32.705Z,94716.86
2019-03-16T02:48:58.714Z,94715.86
2019-03-16T02:51:24.712Z,94709.29
2019-03-16T02:53:50.727Z,94702.64
2019-03-16T02:56:16.710Z,94702.64
2019-03-16T02:58:42.703Z,94704.50
2019-03-16T03:01:08.710Z,94706.13
2019-03-16T03:03:34.707Z,94710.62
2019-03-16T03:06:00.734Z,94723.42
2019-03-16T03:08:26.733Z,94727.00
2019-03-16T03:10:52.732Z,94733.45
2019-03-16T03:13:18.727Z,94729.78
2019-03-16T03:15:44.739Z,94719.23
2019-03-16T03:18:10.734Z,94716.98
2019-03-16T03:20:36.727Z,94716.56
2019-03-16T03:23:02.729Z,94718.19
2019-03-16T03:25:28.731Z,94718.19
2019-03-16T03:27:54.722Z,94715.65
2019-03-16T03:30:20.727Z,94715.65
2019-03-16T03:32:46.728Z,94716.48
2019-03-16T03:35:12.736Z,94716.98
2019-03-16T03:37:38.736Z,94721.89
2019-03-16T03:40:04.755Z,94725.88
2019-03-16T03:42:30.750Z,94721.48
2019-03-16T03:44:56.744Z,94721.80
2019-03-16T03:47:22.855Z,94723.63
2019-03-16T03:49:48.733Z,94717.60
2019-03-16T03:52:14.742Z,94722.01
2019-03-16T03:54:40.741Z,94723.22
2019-03-16T03:57:06.764Z,94717.07
2019-03-16T03:59:32.755Z,94720.14
2019-03-16T04:01:58.755Z,94716.16
2019-03-16T04:04:24.761Z,94714.11
2019-03-16T04:06:50.753Z,94713.08
2019-03-16T04:09:16.765Z,94706.95
2019-03-16T04:11:42.763Z,94702.05
2019-03-16T04:14:08.777Z,94704.30
2019-03-16T04:16:34.774Z,94698.44
2019-03-16T04:19:00.769Z,94690.87
2019-03-16T04:21:26.790Z,94678.89
2019-03-16T04:23:52.769Z,94677.27
2019-03-16T04:26:18.761Z,94677.68
2019-03-16T04:28:44.759Z,94671.44
2019-03-16T04:31:10.881Z,94672.03
2019-03-16T04:33:36.751Z,94658.81
2019-03-16T04:36:02.763Z,94664.46
2019-03-16T04:38:28.759Z,94661.47
2019-03-16T04:40:54.758Z,94658.64
2019-03-16T04:43:20.759Z,94648.49
2019-03-16T04:45:46.763Z,94643.87
2019-03-16T04:48:12.772Z,94644.41
2019-03-16T04:50:38.766Z,94644.91
2019-03-16T04:53:04.772Z,94652.81
2019-03-16T04:55:30.788Z,94669.70
2019-03-16T04:57:56.826Z,94682.88
2019-03-16T05:00:22.818Z,94700.18
2019-03-16T05:02:48.813Z,94702.55
2019-03-16T05:05:14.819Z,94718.11
2019-03-16T05:07:40.809Z,94727.42
2019-03-16T05:10:07.375Z,94732.63
2019-03-16T05:12:32.970Z,94736.94
2019-03-16T05:14:59.089Z,94730.16
2019-03-16T05:17:25.082Z,94717.77
2019-03-16T05:19:51.127Z,94722.59
2019-03-16T05:22:17.134Z,94720.64
2019-03-16T05:24:43.136Z,94717.69
2019-03-16T05:27:09.135Z,94723.01
2019-03-16T05:29:35.139Z,94734.98
2019-03-16T05:32:01.161Z,94740.40
2019-03-16T05:34:27.165Z,94730.37
2019-03-16T05:36:55.970Z,94731.08
2019-03-16T05:39:19.201Z,94722.47
2019-03-16T05:41:45.195Z,94721.97
2019-03-16T05:44:11.202Z,94724.50
2019-03-16T05:46:37.200Z,94723.91
2019-03-16T05:49:03.256Z,94729.63
2019-03-16T05:51:29.251Z,94740.18
2019-03-16T05:53:55.243Z,94737.43
2019-03-16T05:56:21.247Z,94733.02
2019-03-16T05:58:47.243Z,94736.89
2019-03-16T06:01:13.276Z,94752.45
2019-03-16T06:03:39.267Z,94756.77
2019-03-16T06:06:05.264Z,94770.80
2019-03-16T06:08:31.263Z,94778.37
2019-03-16T06:10:57.344Z,94780.62
2019-03-16T06:13:23.349Z,94784.11
2019-03-16T06:15:49.341Z,94803.16
2019-03-16T06:18:15.350Z,94807.86
2019-03-16T06:20:41.350Z,94803.98
2019-03-16T06:23:07.372Z,94797.42
2019-03-16T06:25:33.368Z,94788.52
2019-03-16T06:27:59.438Z,94792.22
2019-03-16T06:30:25.439Z,94781.77
2019-03-16T06:32:51.438Z,94789.44
2019-03-16T06:35:24.346Z,94801.20
2019-03-16T06:37:43.461Z,94799.58
2019-03-16T06:40:09.481Z,94806.44
2019-03-16T06:42:35.498Z,94811.23
2019-03-16T06:45:01.496Z,94813.69
2019-03-16T06:47:27.490Z,94814.02
2019-03-16T06:49:53.488Z,94809.11
2019-03-16T06:52:19.495Z,94808.90
2019-03-16T06:54:45.487Z,94797.21
2019-03-16T06:57:11.490Z,94786.35
2019-03-16T06:59:37.484Z,94776.20
2019-03-16T07:02:03.478Z,94785.11
2019-03-16T07:04:29.494Z,94779.70
2019-03-16T07:06:55.511Z,94778.36
2019-03-16T07:09:21.565Z,94785.94
2019-03-16T07:11:47.560Z,94796.30
2019-03-16T07:14:13.565Z,94800.79
2019-03-16T07:16:39.566Z,94804.58
2019-03-16T07:19:05.586Z,94808.78
2019-03-16T07:21:31.586Z,94805.49
2019-03-16T07:23:57.595Z,94806.20
2019-03-16T07:26:23.595Z,94802.91
2019-03-16T07:28:49.622Z,94797.80
2019-03-16T07:31:15.626Z,94801.91
2019-03-16T07:33:41.639Z,94805.69
2019-03-16T07:36:07.656Z,94802.70
2019-03-16T07:38:33.658Z,94792.59
2019-03-16T07:40:59.661Z,94797.50
2019-03-16T07:43:25.811Z,94787.05
2019-03-16T07:45:51.815Z,94784.98
2019-03-16T07:48:17.813Z,94782.31
2019-03-16T07:50:43.824Z,94787.84
2019-03-16T07:53:09.833Z,94799.74
2019-03-16T07:55:35.850Z,94793.17
2019-03-16T07:58:01.860Z,94792.46
2019-03-16T08:00:27.894Z,94788.77
2019-03-16T08:02:53.889Z,94793.88
2019-03-16T08:05:19.892Z,94786.02
2019-03-16T08:07:45.895Z,94783.55
2019-03-16T08:10:11.900Z,94786.84
2019-03-16T08:12:37.905Z,94791.42
2019-03-16T08:15:03.890Z,94786.30
2019-03-16T08:17:29.892Z,94786.42
2019-03-16T08:19:55.914Z,94782.42
2019-03-16T08:22:21.909Z,94776.56
2019-03-16T08:24:47.912Z,94781.69
2019-03-16T08:27:13.918Z,94776.56
2019-03-16T08:29:39.911Z,94779.23
2019-03-16T08:32:05.915Z,94771.03
2019-03-16T08:34:31.908Z,94763.04
2019-03-16T08:36:57.914Z,94753.34
2019-03-16T08:39:23.932Z,94763.45
2019-03-16T08:41:49.939Z,94761.00
2019-03-16T08:44:15.927Z,94756.00
2019-03-16T08:46:41.928Z,94754.84
2019-03-16T08:49:07.936Z,94747.80
2019-03-16T08:51:33.951Z,94754.75
2019-03-16T08:53:59.964Z,94758.13
2019-03-16T08:56:25.961Z,94763.25
2019-03-16T08:58:51.961Z,94754.88
2019-03-16T09:01:17.954Z,94757.54
2019-03-16T09:03:44.156Z,94751.09
2019-03-16T09:06:09.954Z,94747.27
2019-03-16T09:08:35.948Z,94747.27
2019-03-16T09:11:02.008Z,94742.16
2019-03-16T09:13:28.048Z,94736.23
2019-03-16T09:15:54.057Z,94736.61
2019-03-16T09:18:20.052Z,94726.59
2019-03-16T09:20:46.055Z,94708.48
2019-03-16T09:23:12.057Z,94726.09
2019-03-16T09:25:38.052Z,94722.59
2019-03-16T09:28:04.100Z,94729.45
2019-03-16T09:30:30.114Z,94728.20
2019-03-16T09:32:56.098Z,94723.62
2019-03-16T09:35:22.099Z,94713.19
2019-03-16T09:37:48.120Z,94712.36
2019-03-16T09:40:14.107Z,94708.98
2019-03-16T09:42:40.111Z,94710.81
2019-03-16T09:45:06.166Z,94709.60
2019-03-16T09:47:32.158Z,94706.20
2019-03-16T09:49:58.205Z,94713.39
2019-03-16T09:52:24.222Z,94709.91
2019-03-16T09:54:50.291Z,94700.49
2019-03-16T09:57:16.407Z,94711.44
2019-03-16T09:59:42.442Z,94693.30
2019-03-16T10:02:08.415Z,94696.50
2019-03-16T10:04:34.413Z,94692.88
2019-03-16T10:07:00.413Z,94700.49
2019-03-16T10:09:26.409Z,94690.75
2019-03-16T10:11:52.467Z,94688.51
2019-03-16T10:14:18.552Z,94688.51
2019-03-16T10:16:44.571Z,94676.91
2019-03-16T10:19:10.571Z,94671.70
2019-03-16T10:21:36.598Z,94674.56
2019-03-16T10:24:02.607Z,94654.69
2019-03-16T10:26:28.603Z,94636.67
2019-03-16T10:28:54.644Z,94647.94
2019-03-16T10:31:20.674Z,94650.59
2019-03-16T10:33:46.657Z,94665.25
2019-03-16T10:36:12.652Z,94662.46
2019-03-16T10:38:38.660Z,94665.13
2019-03-16T10:41:04.642Z,94674.03
2019-03-16T10:43:30.636Z,94661.04
2019-03-16T10:45:56.715Z,94650.06
2019-03-16T10:48:22.715Z,94638.91
2019-03-16T10:50:48.723Z,94645.47
2019-03-16T10:53:14.763Z,94636.24
2019-03-16T10:55:40.771Z,94632.66
2019-03-16T10:58:06.764Z,94622.92
2019-03-16T11:00:32.764Z,94632.73
2019-03-16T11:02:58.769Z,94623.75
2019-03-16T11:05:24.780Z,94621.29
2019-03-16T11:07:50.776Z,94611.75
2019-03-16T11:10:16.773Z,94618.41
2019-03-16T11:12:42.771Z,94626.62
2019-03-16T11:15:08.769Z,94626.91
2019-03-16T11:17:34.787Z,94632.11
2019-03-16T11:20:00.865Z,94636.44
2019-03-16T11:22:26.845Z,94636.95
2019-03-16T11:24:52.866Z,94622.92
2019-03-16T11:27:18.868Z,94616.97
2019-03-16T11:29:44.869Z,94616.05
2019-03-16T11:32:10.963Z,94611.55
2019-03-16T11:34:36.903Z,94600.70
2019-03-16T11:37:02.900Z,94610.31
2019-03-16T11:39:28.950Z,94614.63
2019-03-16T11:41:54.943Z,94613.89
2019-03-16T11:44:20.950Z,94613.80
2019-03-16T11:46:46.956Z,94612.19
2019-03-16T11:49:12.970Z,94608.36
2019-03-16T11:51:38.972Z,94616.76
2019-03-16T11:54:04.966Z,94613.89
2019-03-16T11:56:30.976Z,94613.52
2019-03-16T11:58:56.972Z,94627.13
2019-03-16T12:01:22.974Z,94627.21
2019-03-16T12:03:48.977Z,94608.69
2019-03-16T12:06:14.975Z,94614.84
2019-03-16T12:08:40.980Z,94615.22
2019-03-16T12:11:06.986Z,94601.31
2019-03-16T12:13:32.978Z,94600.69
2019-03-16T12:15:58.974Z,94604.36
2019-03-16T12:18:24.978Z,94609.88
2019-03-16T12:20:50.977Z,94617.59
2019-03-16T12:23:16.991Z,94596.56
2019-03-16T12:25:42.984Z,94606.42
2019-03-16T12:28:08.987Z,94603.98
2019-03-16T12:30:34.982Z,94610.93
2019-03-16T12:33:00.988Z,94608.89
2019-03-16T12:35:26.999Z,94613.69
2019-03-16T12:37:53.016Z,94624.05
2019-03-16T12:40:19.007Z,94619.76
2019-03-16T12:42:45.007Z,94616.55
2019-03-16T12:45:11.006Z,94627.84
2019-03-16T12:47:37.000Z,94623.34
2019-03-16T12:50:03.003Z,94623.97
2019-03-16T12:52:29.005Z,94631.83
2019-03-16T12:54:55.006Z,94627.05
2019-03-16T12:57:21.003Z,94626.51
2019-03-16T12:59:47.409Z,94623.43
2019-03-16T13:02:13.022Z,94626.51
2019-03-16T13:04:39.014Z,94626.09
2019-03-16T13:07:05.015Z,94627.42
2019-03-16T13:09:31.016Z,94631.12
2019-03-16T13:11:57.010Z,94631.25
2019-03-16T13:14:23.002Z,94622.94
2019-03-16T13:16:48.999Z,94620.69
2019-03-16T13:19:14.996Z,94621.19
2019-03-16T13:21:43.688Z,94614.53
2019-03-16T13:24:07.068Z,94626.43
2019-03-16T13:26:33.058Z,94623.35
2019-03-16T13:28:59.064Z,94624.69
2019-03-16T13:31:25.063Z,94637.17
2019-03-16T13:33:53.330Z,94635.42
2019-03-16T13:36:17.055Z,94646.81
2019-03-16T13:38:43.076Z,94634.09
2019-03-16T13:41:09.073Z,94648.03
2019-03-16T13:43:35.069Z,94632.26
2019-03-16T13:46:01.080Z,94640.46
2019-03-16T13:48:27.090Z,94645.28
2019-03-16T13:50:53.142Z,94656.34
2019-03-16T13:53:19.146Z,94643.25
2019-03-16T13:55:45.178Z,94650.12
2019-03-16T13:58:11.168Z,94645.08
2019-03-16T14:00:37.163Z,94644.38
2019-03-16T14:03:03.164Z,94645.38
2019-03-16T14:05:29.206Z,94636.48
2019-03-16T14:07:55.216Z,94636.48
2019-03-16T14:10:21.221Z,94643.55
2019-03-16T14:12:47.239Z,94641.80
2019-03-16T14:15:13.244Z,94649.29
2019-03-16T14:17:39.300Z,94641.30
2019-03-16T14:20:05.301Z,94640.69
2019-03-16T14:22:31.306Z,94652.58
2019-03-16T14:24:57.302Z,94649.09
2019-03-16T14:27:23.305Z,94653.08
2019-03-16T14:29:49.325Z,94649.50
2019-03-16T14:32:15.330Z,94656.16
2019-03-16T14:34:41.329Z,94659.03
2019-03-16T14:37:07.335Z,94652.88
2019-03-16T14:39:33.336Z,94654.21
2019-03-16T14:41:59.344Z,94670.60
2019-03-16T14:44:25.334Z,94676.14
2019-03-16T14:46:51.343Z,94681.05
2019-03-16T14:49:17.346Z,94676.86
2019-03-16T14:51:43.370Z,94676.77
2019-03-16T14:54:09.363Z,94671.94
2019-03-16T14:56:35.356Z,94685.80
2019-03-16T14:59:01.388Z,94685.25
2019-03-16T15:01:27.382Z,94673.81
2019-03-16T15:03:53.383Z,94668.86
2019-03-16T15:06:19.380Z,94673.17
2019-03-16T15:08:45.384Z,94676.22
2019-03-16T15:11:11.385Z,94677.38
2019-03-16T15:13:37.387Z,94674.30
2019-03-16T15:16:03.397Z,94680.42
2019-03-16T15:18:29.416Z,94685.16
2019-03-16T15:20:55.411Z,94681.76
2019-03-16T15:23:21.411Z,94680.54
2019-03-16T15:25:47.416Z,94684.62
2019-03-16T15:28:13.412Z,94687.28
2019-03-16T15:30:50.287Z,94691.39
2019-03-16T15:33:05.564Z,94695.48
2019-03-16T15:35:31.614Z,94686.85
2019-03-16T15:37:57.626Z,94691.05
2019-03-16T15:40:23.638Z,94687.89
2019-03-16T15:42:49.646Z,94682.77
2019-03-16T15:45:15.631Z,94688.38
2019-03-16T15:47:41.664Z,94690.84
2019-03-16T15:50:07.656Z,94691.67
2019-03-16T15:52:33.659Z,94696.08
2019-03-16T15:54:59.704Z,94697.70
2019-03-16T15:57:25.742Z,94698.62
2019-03-16T15:59:51.745Z,94704.77
2019-03-16T16:02:17.741Z,94704.86
2019-03-16T16:04:43.784Z,94701.48
2019-03-16T16:07:09.792Z,94698.52
2019-03-16T16:09:35.785Z,94703.44
2019-03-16T16:12:01.838Z,94712.77
2019-03-16T16:14:27.832Z,94708.86
2019-03-16T16:16:53.835Z,94712.56
2019-03-16T16:19:21.839Z,94712.86
2019-03-16T16:21:45.829Z,94719.02
2019-03-16T16:24:11.819Z,94718.71
2019-03-16T16:26:37.855Z,94721.59
2019-03-16T16:29:03.881Z,94732.13
2019-03-16T16:31:29.888Z,94738.69
2019-03-16T16:33:55.902Z,94740.41
2019-03-16T16:36:21.907Z,94741.64
2019-03-16T16:38:47.927Z,94738.56
2019-03-16T16:41:13.933Z,94750.34
2019-03-16T16:43:39.951Z,94751.89
2019-03-16T16:46:05.953Z,94753.72
2019-03-16T16:48:31.982Z,94758.54
2019-03-16T16:50:57.977Z,94757.83
2019-03-16T16:53:23.981Z,94761.81
2019-03-16T16:55:49.993Z,94761.70
2019-03-16T16:58:16.038Z,94766.11
2019-03-16T17:00:42.042Z,94756.79
2019-03-16T17:03:08.040Z,94760.49
2019-03-16T17:05:34.077Z,94766.94
2019-03-16T17:08:00.066Z,94776.14
2019-03-16T17:10:26.063Z,94768.78
2019-03-16T17:12:52.121Z,94776.47
2019-03-16T17:15:18.118Z,94781.26
2019-03-16T17:17:44.355Z,94786.00
2019-03-16T17:20:10.350Z,94785.38
2019-03-16T17:22:37.590Z,94788.66
2019-03-16T17:25:02.356Z,94798.37
2019-03-16T17:27:28.361Z,94793.45
2019-03-16T17:29:54.356Z,94800.44
2019-03-16T17:32:20.370Z,94797.03
2019-03-16T17:34:46.360Z,94804.81
2019-03-16T17:37:12.680Z,94809.85
2019-03-16T17:39:38.712Z,94803.31
2019-03-16T17:42:07.671Z,94807.19
2019-03-16T17:44:30.687Z,94810.67
2019-03-16T17:46:56.695Z,94811.48
2019-03-16T17:49:24.958Z,94814.27
2019-03-16T17:51:51.120Z,94812.30
2019-03-16T17:54:17.247Z,94817.63
2019-03-16T17:56:43.258Z,94821.62
2019-03-16T17:59:09.290Z,94827.45
2019-03-16T18:01:35.319Z,94828.70
2019-03-16T18:04:01.318Z,94834.74
2019-03-16T18:06:27.324Z,94835.66
2019-03-16T18:08:53.327Z,94838.23
2019-03-16T18:11:19.339Z,94833.03
2019-03-16T18:13:45.459Z,94833.62
2019-03-16T18:16:11.454Z,94831.37
2019-03-16T18:18:37.461Z,94835.98
2019-03-16T18:21:03.466Z,94837.81
2019-03-16T18:23:29.467Z,94841.31
2019-03-16T18:25:55.485Z,94839.15
2019-03-16T18:28:21.625Z,94838.23
2019-03-16T18:30:47.652Z,94838.32
2019-03-16T18:33:13.656Z,94843.56
2019-03-16T18:35:39.733Z,94845.59
2019-03-16T18:38:05.710Z,94850.09
2019-03-16T18:40:31.716Z,94854.92
2019-03-16T18:42:57.714Z,94861.08
2019-03-16T18:45:23.723Z,94860.66
2019-03-16T18:47:49.737Z,94859.95
2019-03-16T18:50:15.736Z,94870.61
2019-03-16T18:52:41.752Z,94873.06
2019-03-16T18:55:07.787Z,94877.06
2019-03-16T18:57:33.897Z,94877.56
2019-03-16T18:59:59.896Z,94876.86
2019-03-16T19:02:25.904Z,94881.14
2019-03-16T19:04:51.898Z,94891.42
2019-03-16T19:07:17.975Z,94894.46
2019-03-16T19:09:43.966Z,94903.20
2019-03-16T19:12:09.980Z,94907.70
2019-03-16T19:14:35.985Z,94902.78
2019-03-16T19:17:02.358Z,94906.45
2019-03-16T19:19:28.391Z,94908.82
2019-03-16T19:21:54.384Z,94912.91
2019-03-16T19:24:20.388Z,94914.15
2019-03-16T19:26:46.384Z,94914.15
2019-03-16T19:29:12.388Z,94920.39
2019-03-16T19:31:38.412Z,94917.61
2019-03-16T19:34:04.412Z,94918.73
2019-03-16T19:36:30.409Z,94917.81
2019-03-16T19:38:56.422Z,94913.20
2019-03-16T19:41:22.423Z,94909.95
2019-03-16T19:43:50.284Z,94909.53
2019-03-16T19:46:14.433Z,94908.31
2019-03-16T19:48:40.456Z,94909.86
2019-03-16T19:51:06.468Z,94910.36
2019-03-16T19:53:32.448Z,94911.19
2019-03-16T19:55:58.448Z,94917.31
2019-03-16T19:58:24.447Z,94919.89
2019-03-16T20:00:50.447Z,94924.80
2019-03-16T20:03:16.455Z,94936.38
2019-03-16T20:05:42.475Z,94931.46
2019-03-16T20:08:08.477Z,94948.57
2019-03-16T20:10:34.592Z,94951.44
2019-03-16T20:13:00.568Z,94950.31
2019-03-16T20:15:26.563Z,94958.60
2019-03-16T20:17:52.568Z,94955.84
2019-03-16T20:20:18.562Z,94956.77
2019-03-16T20:22:44.672Z,94951.94
2019-03-16T20:25:10.599Z,94954.72
2019-03-16T20:27:36.596Z,94961.88
2019-03-16T20:30:02.598Z,94960.55
2019-03-16T20:32:28.593Z,94962.50
2019-03-16T20:34:54.626Z,94967.71
2019-03-16T20:37:20.617Z,94967.51
2019-03-16T20:39:46.612Z,94970.29
2019-03-16T20:42:12.614Z,94967.21
2019-03-16T20:44:38.610Z,94965.80
2019-03-16T20:47:04.605Z,94970.08
2019-03-16T20:49:30.613Z,94973.04
2019-03-16T20:51:56.616Z,94964.05
2019-03-16T20:54:22.624Z,94968.55
2019-03-16T20:56:48.876Z,94963.92
2019-03-16T20:59:14.872Z,94966.50
2019-03-16T21:01:40.900Z,94969.67
2019-03-16T21:04:06.902Z,94971.83
2019-03-16T21:06:32.941Z,94971.83
2019-03-16T21:09:03.415Z,94983.41
2019-03-16T21:11:25.000Z,94984.44
2019-03-16T21:13:51.209Z,94980.23
2019-03-16T21:16:17.351Z,94983.82
2019-03-16T21:18:43.899Z,94984.32
2019-03-16T21:21:09.904Z,94984.83
2019-03-16T21:23:35.927Z,94988.31
2019-03-16T21:26:01.923Z,94993.23
2019-03-16T21:28:27.914Z,95002.14
2019-03-16T21:30:53.915Z,94998.14
2019-03-16T21:33:29.558Z,94994.27
2019-03-16T21:35:45.918Z,95002.05
2019-03-16T21:38:11.911Z,95001.93
2019-03-16T21:40:37.911Z,95006.88
2019-03-16T21:43:03.906Z,95001.02
2019-03-16T21:45:29.907Z,95009.55
2019-03-16T21:48:00.154Z,95008.59
2019-03-16T21:50:21.928Z,95008.59
2019-03-16T21:52:47.922Z,95008.92
2019-03-16T21:55:13.915Z,95013.12
2019-03-16T21:57:39.932Z,95010.84
2019-03-16T22:00:05.933Z,95006.05
2019-03-16T22:02:31.928Z,95012.00
2019-03-16T22:04:57.924Z,95009.72
2019-03-16T22:07:23.947Z,95013.33
2019-03-16T22:09:49.945Z,95011.88
2019-03-16T22:12:15.945Z,95011.05
2019-03-16T22:14:41.949Z,95008.71
2019-03-16T22:17:07.943Z,95017.71
2019-03-16T22:19:33.962Z,95015.58
2019-03-16T22:21:59.968Z,95022.33
2019-03-16T22:24:25.986Z,95017.00
2019-03-16T22:26:51.987Z,95019.36
2019-03-16T22:29:18.018Z,95013.63
2019-03-16T22:31:43.983Z,95015.98
2019-03-16T22:34:09.980Z,95020.90
2019-03-16T22:36:36.029Z,95025.93
2019-03-16T22:39:02.031Z,95020.19
2019-03-16T22:41:28.022Z,95024.59
2019-03-16T22:43:54.030Z,95023.55
2019-03-16T22:46:20.048Z,95018.14
2019-03-16T22:48:46.054Z,95019.86
2019-03-16T22:51:12.056Z,95017.93
2019-03-16T22:53:38.055Z,95019.98
2019-03-16T22:56:04.055Z,95009.94
2019-03-16T22:58:30.081Z,95014.86
2019-03-16T23:00:56.077Z,95008.20
2019-03-16T23:03:22.074Z,95005.62
2019-03-16T23:05:48.072Z,95005.11
2019-03-16T23:08:14.071Z,95007.36
2019-03-16T23:10:40.076Z,95004.20
2019-03-16T23:13:06.104Z,95003.48
2019-03-16T23:15:32.117Z,95006.66
2019-03-16T23:17:58.111Z,95010.64
2019-03-16T23:20:24.139Z,95005.82
2019-03-16T23:22:50.128Z,95014.34
2019-03-16T23:25:16.113Z,95007.27
2019-03-16T23:27:42.118Z,95008.27
2019-03-16T23:30:08.121Z,95015.34
2019-03-16T23:32:34.160Z,95011.35
2019-03-16T23:35:00.264Z,95016.59
2019-03-16T23:37:26.179Z,95020.26
2019-03-16T23:39:52.176Z,95025.20
2019-03-16T23:42:18.172Z,95025.70
2019-03-16T23:44:44.171Z,95023.45
2019-03-16T23:47:10.162Z,95024.37
2019-03-16T23:49:36.188Z,95023.13
2019-03-16T23:52:02.188Z,95023.13
2019-03-16T23:54:28.192Z,95022.83
2019-03-16T23:56:54.191Z,95024.58
2019-03-16T23:59:20.189Z,95015.87
